Orlando, Florida
Current Conditions -  °F | °C
As of 10:53 PM on Thursday 27 Nov 2014 (Local Time) from KORL Reporting Station
Clear Clear  
Wind Chill: 12°   Ceiling: Unl
Heat Index: 12°   Visibility: 10mi
Dew Point:   Wind: 13mph
Humidity: 52%   Direction: 350°N
Pressure: 30.29"   Gusts: NA
Location:  28.54°N, 81.38°W
Report Text: KORL 280353Z 35011KT 10SM CLR 12/02 A3029 RMK AO2 SLP262 T01170022
Loading
Personal Weather Stations






























Interactive Weather Map New forecast layout! Learn more

10-Day Weather Forecast

Advertisements
Track Severe Weather on mobile